Time;durP1;ratioP1;P1;durP2;ratioP2;P2;SDS_P1;SDS_P2;PMS_P1;PMS_P2;Temp;Humidity;BMP_temperature;BMP_pressure;BME280_temperature;BME280_humidity;BME280_pressure;Samples;Min_cycle;Max_cycle;Signal;HPM_P1;HPM_P2
2021/06/12 00:04:49;;;;;;;0.10;0.10;;;;;;;16.16;86.28;101774.38;10482673;28;20107;-62
2021/06/12 00:09:49;;;;;;;0.10;0.10;;;;;;;16.11;86.63;101771.34;10489160;28;20251;-61
2021/06/12 00:14:50;;;;;;;0.10;0.10;;;;;;;16.10;87.26;101767.00;10489559;28;20037;-62
2021/06/12 00:19:50;;;;;;;0.10;0.10;;;;;;;16.15;87.04;101767.31;10481001;28;20025;-63
2021/06/12 00:24:50;;;;;;;0.10;0.10;;;;;;;16.23;87.66;101760.06;10491628;28;20403;-62
2021/06/12 00:29:51;;;;;;;0.10;0.10;;;;;;;16.29;87.36;101758.53;10497989;28;20013;-63
2021/06/12 00:34:51;;;;;;;0.10;0.10;;;;;;;16.30;87.54;101757.50;10472148;28;20036;-65
2021/06/12 00:39:51;;;;;;;0.17;0.17;;;;;;;16.33;87.54;101756.31;10456411;28;20491;-63
2021/06/12 00:44:52;;;;;;;0.10;0.10;;;;;;;16.34;87.24;101739.19;10455960;28;20029;-63
2021/06/12 00:49:52;;;;;;;0.10;0.10;;;;;;;16.34;87.58;101734.63;10455410;28;20019;-63
2021/06/12 00:54:52;;;;;;;0.00;0.00;;;;;;;16.33;87.75;101727.59;10496464;28;20501;-62
2021/06/12 00:59:53;;;;;;;0.07;0.07;;;;;;;16.33;87.49;101724.91;10488747;28;20434;-63
2021/06/12 01:04:53;;;;;;;0.10;0.10;;;;;;;16.32;87.73;101730.44;10448599;28;20488;-63
2021/06/12 01:09:53;;;;;;;0.20;0.20;;;;;;;16.33;87.42;101724.91;10459483;28;20321;-63
2021/06/12 01:14:59;;;;;;;0.13;0.13;;;;;;;16.32;87.17;101725.91;10455162;28;20207;-62
2021/06/12 01:20:20;;;;;;;0.10;0.10;;;;;;;16.33;87.68;101724.06;10456329;28;20326;-64
2021/06/12 01:25:27;;;;;;;0.10;0.10;;;;;;;16.34;87.34;101723.03;10490714;28;20021;-62
2021/06/12 01:30:34;;;;;;;0.10;0.10;;;;;;;16.33;87.40;101713.31;10495472;28;20429;-62
2021/06/12 01:35:42;;;;;;;0.10;0.10;;;;;;;16.34;87.10;101701.53;10489844;28;20013;-62
2021/06/12 01:40:45;;;;;;;0.10;0.10;;;;;;;16.34;87.66;101718.50;10487285;28;20086;-61
2021/06/12 01:45:47;;;;;;;0.10;0.10;;;;;;;16.34;87.38;101712.28;10495111;28;20021;-63
2021/06/12 01:50:48;;;;;;;0.10;0.10;;;;;;;16.34;87.31;101701.53;10494577;28;20017;-61
2021/06/12 01:55:49;;;;;;;0.10;0.10;;;;;;;16.35;87.35;101700.50;10493635;28;20428;-62
2021/06/12 02:00:50;;;;;;;0.10;0.10;;;;;;;16.40;87.52;101707.03;10526391;22;20040;-63
2021/06/12 02:05:52;;;;;;;0.10;0.10;;;;;;;16.47;88.09;101707.19;10556807;28;20266;-63
2021/06/12 02:10:53;;;;;;;0.00;0.00;;;;;;;16.51;87.83;101705.81;10517846;28;20021;-62
2021/06/12 02:15:56;;;;;;;0.10;0.10;;;;;;;16.56;87.69;101705.28;10475265;28;20419;-63
2021/06/12 02:20:58;;;;;;;0.10;0.10;;;;;;;16.58;88.01;101705.94;10493751;28;20464;-64
2021/06/12 02:25:58;;;;;;;0.10;0.10;;;;;;;16.58;87.80;101708.63;10530191;28;20046;-63
2021/06/12 02:31:08;;;;;;;0.10;0.10;;;;;;;16.58;88.11;101701.41;10515160;28;20536;-63
2021/06/12 02:36:09;;;;;;;0.10;0.10;;;;;;;16.58;88.21;101695.19;10493268;28;20025;-61
2021/06/12 02:41:09;;;;;;;0.10;0.10;;;;;;;16.56;88.31;101695.38;10533268;28;20012;-62
2021/06/12 02:46:16;;;;;;;0.10;0.10;;;;;;;16.53;88.64;101703.78;10534358;28;20022;-62
2021/06/12 02:51:17;;;;;;;0.10;0.10;;;;;;;16.45;88.68;101693.06;10491778;28;20032;-62
2021/06/12 02:56:19;;;;;;;0.20;0.20;;;;;;;16.36;88.82;101676.16;10534082;28;20016;-62
2021/06/12 03:01:22;;;;;;;0.10;0.10;;;;;;;16.29;88.80;101662.59;10507923;28;20028;-62
2021/06/12 03:06:24;;;;;;;0.00;0.00;;;;;;;16.24;88.15;101646.13;10492468;28;20028;-62
2021/06/12 03:11:29;;;;;;;0.10;0.10;;;;;;;16.24;88.68;101651.53;10517813;28;20024;-63
2021/06/12 03:16:30;;;;;;;0.10;0.10;;;;;;;16.25;88.85;101649.66;10491936;28;20024;-62
2021/06/12 03:21:31;;;;;;;0.00;0.00;;;;;;;16.24;88.00;101632.69;10515598;28;20016;-62
2021/06/12 03:26:34;;;;;;;0.10;0.10;;;;;;;16.25;87.77;101629.00;10533219;28;20020;-62
2021/06/12 03:31:34;;;;;;;0.10;0.10;;;;;;;16.25;87.71;101650.50;10532607;28;20081;-62
2021/06/12 03:36:35;;;;;;;0.10;0.10;;;;;;;16.26;87.88;101648.63;10532818;28;20073;-62
2021/06/12 03:41:37;;;;;;;0.10;0.10;;;;;;;16.28;87.62;101660.06;10524177;28;20278;-62
2021/06/12 03:46:39;;;;;;;0.00;0.00;;;;;;;16.30;87.28;101664.25;10514757;28;20028;-61
2021/06/12 03:51:41;;;;;;;0.10;0.10;;;;;;;16.33;86.63;101655.00;10521084;28;20027;-62
2021/06/12 03:56:42;;;;;;;0.10;0.10;;;;;;;16.38;86.76;101654.47;10532328;28;20081;-62
2021/06/12 04:01:43;;;;;;;0.10;0.10;;;;;;;16.40;86.48;101653.25;10493025;28;20111;-62
2021/06/12 04:06:43;;;;;;;0.10;0.10;;;;;;;16.41;86.29;101660.34;10490820;28;20116;-63
2021/06/12 04:11:44;;;;;;;0.10;0.10;;;;;;;16.46;86.59;101649.88;10478651;28;20024;-63
2021/06/12 04:16:44;;;;;;;0.10;0.10;;;;;;;16.51;86.62;101646.66;10497089;28;20136;-64
2021/06/12 04:21:45;;;;;;;0.10;0.10;;;;;;;16.55;86.51;101641.75;10531100;28;20043;-64
2021/06/12 04:26:46;;;;;;;0.10;0.10;;;;;;;16.57;86.53;101659.38;10532529;28;20323;-64
2021/06/12 04:31:46;;;;;;;0.10;0.10;;;;;;;16.61;86.66;101666.09;10493810;28;20042;-63
2021/06/12 04:36:46;;;;;;;0.10;0.10;;;;;;;16.67;86.16;101659.16;10489897;28;20376;-64
2021/06/12 04:41:47;;;;;;;0.10;0.10;;;;;;;16.74;86.14;101660.09;10489354;28;20021;-63
2021/06/12 04:46:47;;;;;;;0.10;0.10;;;;;;;16.82;86.47;101668.16;10495325;28;20047;-63
2021/06/12 04:51:47;;;;;;;0.00;0.00;;;;;;;16.86;86.38;101653.31;10489212;28;20048;-63
2021/06/12 04:56:48;;;;;;;0.10;0.10;;;;;;;16.90;86.47;101643.88;10489654;28;20028;-63
2021/06/12 05:01:48;;;;;;;0.10;0.10;;;;;;;16.96;86.50;101648.53;10489882;28;20031;-64
2021/06/12 05:06:48;;;;;;;0.10;0.10;;;;;;;17.01;86.40;101666.81;10489385;28;20074;-62
2021/06/12 05:11:50;;;;;;;0.10;0.10;;;;;;;17.02;86.57;101671.19;10491995;28;20020;-61
2021/06/12 05:16:50;;;;;;;0.00;0.00;;;;;;;17.03;86.69;101653.19;10508903;28;20028;-64
2021/06/12 05:21:51;;;;;;;0.10;0.10;;;;;;;17.06;86.70;101652.81;10537241;28;20020;-62
2021/06/12 05:26:52;;;;;;;0.10;0.10;;;;;;;17.05;86.68;101652.00;10513869;28;20094;-62
2021/06/12 05:31:52;;;;;;;0.10;0.10;;;;;;;17.08;86.56;101640.03;10485339;28;20421;-62
2021/06/12 05:36:53;;;;;;;0.10;0.10;;;;;;;17.14;86.56;101634.75;10537340;28;20291;-63
2021/06/12 05:41:53;;;;;;;0.10;0.10;;;;;;;17.26;86.28;101643.22;10536722;28;20502;-63
2021/06/12 05:46:53;;;;;;;0.10;0.10;;;;;;;17.36;85.90;101638.38;10523141;28;20032;-63
2021/06/12 05:51:54;;;;;;;0.10;0.10;;;;;;;17.42;86.03;101636.81;10536542;28;20024;-61
2021/06/12 05:56:55;;;;;;;0.10;0.10;;;;;;;17.38;85.95;101636.34;10494933;28;20035;-61
2021/06/12 06:01:56;;;;;;;0.10;0.10;;;;;;;17.39;85.83;101637.19;10494076;28;20282;-62
2021/06/12 06:06:56;;;;;;;0.10;0.10;;;;;;;17.33;85.38;101637.91;10533505;28;20387;-63
2021/06/12 06:11:56;;;;;;;0.10;0.10;;;;;;;17.31;85.53;101630.03;10517824;28;20379;-63
2021/06/12 06:16:57;;;;;;;0.10;0.10;;;;;;;17.31;85.46;101629.22;10496352;28;20036;-63
2021/06/12 06:21:58;;;;;;;0.10;0.10;;;;;;;17.25;85.91;101620.00;10510791;28;20024;-63
2021/06/12 06:26:58;;;;;;;0.10;0.10;;;;;;;17.17;86.80;101612.00;10535181;28;20048;-62
2021/06/12 06:31:58;;;;;;;0.10;0.10;;;;;;;17.06;86.59;101610.59;10534770;28;20482;-62
2021/06/12 06:36:58;;;;;;;0.10;0.10;;;;;;;16.99;86.90;101612.34;10535542;28;20360;-63
2021/06/12 06:41:59;;;;;;;0.10;0.10;;;;;;;17.01;87.27;101607.59;10534247;28;20012;-64
2021/06/12 06:46:59;;;;;;;0.10;0.10;;;;;;;16.99;87.01;101612.34;10512631;28;20044;-64
2021/06/12 06:51:59;;;;;;;0.10;0.10;;;;;;;17.03;87.50;101619.03;10525278;28;20744;-65
2021/06/12 06:57:00;;;;;;;0.10;0.10;;;;;;;17.08;86.71;101621.19;10515333;28;20028;-65
2021/06/12 07:02:01;;;;;;;0.10;0.10;;;;;;;17.17;85.16;101623.63;10514045;28;20021;-64
2021/06/12 07:07:03;;;;;;;0.10;0.10;;;;;;;17.26;85.25;101632.44;10511102;28;20089;-65
2021/06/12 07:12:04;;;;;;;0.10;0.10;;;;;;;17.29;85.10;101618.63;10503879;28;20455;-65
2021/06/12 07:17:05;;;;;;;0.10;0.10;;;;;;;17.24;85.42;101636.34;10516604;28;20043;-66
2021/06/12 07:22:05;;;;;;;0.00;0.00;;;;;;;17.29;85.84;101618.63;10512815;28;20469;-66
2021/06/12 07:27:07;;;;;;;0.10;0.10;;;;;;;17.32;84.64;101633.56;10508624;28;20314;-65
2021/06/12 07:32:08;;;;;;;0.08;0.08;;;;;;;17.44;84.76;101621.31;10524736;28;20020;-65
2021/06/12 07:37:08;;;;;;;0.10;0.10;;;;;;;17.48;82.64;101635.25;10510951;28;20524;-65
2021/06/12 07:42:09;;;;;;;0.10;0.10;;;;;;;17.27;83.01;101644.03;10506753;28;20024;-65
2021/06/12 07:47:10;;;;;;;0.10;0.10;;;;;;;17.31;81.32;101634.59;10499821;28;20032;-65
2021/06/12 07:52:10;;;;;;;0.00;0.00;;;;;;;17.82;80.00;101623.94;10501668;28;20023;-65
2021/06/12 07:57:10;;;;;;;0.10;0.10;;;;;;;18.48;77.84;101632.81;10527135;28;20039;-65
2021/06/12 08:02:11;;;;;;;0.10;0.10;;;;;;;18.68;76.71;101651.06;10554395;22;20123;-62
2021/06/12 08:07:12;;;;;;;0.10;0.10;;;;;;;18.67;74.44;101657.47;10534017;28;20020;-63
2021/06/12 08:12:13;;;;;;;0.10;0.10;;;;;;;18.72;74.60;101649.63;10505195;28;20020;-64
2021/06/12 08:17:13;;;;;;;0.10;0.10;;;;;;;18.88;75.01;101659.34;10530711;28;20043;-65
2021/06/12 08:22:14;;;;;;;0.10;0.10;;;;;;;19.02;73.17;101665.72;10532476;28;20016;-64
2021/06/12 08:27:16;;;;;;;0.10;0.10;;;;;;;18.95;70.56;101661.09;10524433;28;20127;-64
2021/06/12 08:32:17;;;;;;;0.00;0.00;;;;;;;18.86;69.27;101681.16;10513547;28;20068;-64
2021/06/12 08:37:17;;;;;;;0.10;0.10;;;;;;;18.95;70.41;101681.88;10511359;28;20111;-63
2021/06/12 08:42:18;;;;;;;0.10;0.10;;;;;;;19.42;66.70;101674.97;10518207;28;20016;-64
2021/06/12 08:47:19;;;;;;;0.10;0.10;;;;;;;19.86;66.29;101674.66;10536247;28;20062;-64
2021/06/12 08:52:19;;;;;;;0.10;0.10;;;;;;;19.87;63.35;101680.91;10539133;28;20037;-64
2021/06/12 08:57:19;;;;;;;0.10;0.10;;;;;;;19.63;62.70;101683.03;10539538;28;20069;-63
2021/06/12 09:02:20;;;;;;;0.10;0.10;;;;;;;19.66;63.18;101687.22;10534356;28;20016;-65
2021/06/12 09:07:34;;;;;;;0.08;0.08;;;;;;;19.98;62.71;101690.31;10537475;28;20073;-63
2021/06/12 09:12:53;;;;;;;0.10;0.10;;;;;;;20.56;60.08;101693.47;10515315;28;20008;-62
2021/06/12 09:17:54;;;;;;;0.10;0.10;;;;;;;20.95;58.74;101695.44;10537291;28;20111;-62
2021/06/12 09:23:15;;;;;;;0.10;0.10;;;;;;;21.24;55.58;101694.19;10537165;28;20053;-63
2021/06/12 09:28:16;;;;;;;0.10;0.10;;;;;;;21.64;54.10;101694.19;10535063;28;20059;-62
2021/06/12 09:33:33;;;;;;;0.00;0.00;;;;;;;21.58;53.68;101692.28;10534013;28;20043;-62
2021/06/12 09:38:36;;;;;;;0.10;0.10;;;;;;;21.89;51.63;101679.94;10537880;28;20020;-61
2021/06/12 09:43:36;;;;;;;0.10;0.10;;;;;;;21.82;53.22;101692.69;10537152;28;20016;-62
2021/06/12 09:48:36;;;;;;;0.10;0.10;;;;;;;21.60;50.99;101694.81;10537778;28;20040;-62
2021/06/12 09:53:55;;;;;;;0.10;0.10;;;;;;;21.74;51.59;101709.19;10536569;28;20470;-62
2021/06/12 09:58:57;;;;;;;0.10;0.10;;;;;;;21.68;53.01;101717.13;10522147;28;20104;-62
2021/06/12 10:04:11;;;;;;;0.10;0.10;;;;;;;21.52;51.85;101728.38;10510110;28;20119;-62
2021/06/12 10:09:11;;;;;;;0.10;0.10;;;;;;;20.63;52.12;101724.13;10510274;28;20116;-62
2021/06/12 10:14:12;;;;;;;0.00;0.00;;;;;;;20.03;55.16;101723.81;10530851;28;20490;-61
2021/06/12 10:19:17;;;;;;;0.10;0.10;;;;;;;19.82;56.84;101732.03;10511073;28;20494;-62
2021/06/12 10:24:18;;;;;;;0.00;0.00;;;;;;;20.31;57.94;101737.28;10530459;28;20107;-62
2021/06/12 10:29:19;;;;;;;0.05;0.05;;;;;;;20.55;55.48;101729.72;10531791;28;20439;-61
2021/06/12 10:34:28;;;;;;;0.10;0.10;;;;;;;20.33;56.24;101740.63;10532836;28;20367;-62
2021/06/12 10:39:32;;;;;;;0.00;0.00;;;;;;;20.28;56.68;101732.28;10520270;28;20439;-62
2021/06/12 10:44:33;;;;;;;0.03;0.03;;;;;;;20.35;55.50;101743.13;10532691;28;20020;-62
2021/06/12 10:49:34;;;;;;;0.10;0.10;;;;;;;20.06;57.48;101746.94;10512736;28;20016;-62
2021/06/12 10:54:37;;;;;;;0.10;0.10;;;;;;;20.04;55.57;101747.16;10507312;28;20100;-62
2021/06/12 10:59:42;;;;;;;0.10;0.10;;;;;;;19.99;57.99;101754.19;10493001;28;20028;-67
2021/06/12 11:04:55;;;;;;;0.10;0.10;;;;;;;19.80;56.48;101755.72;10491901;28;20028;-62
2021/06/12 11:10:11;;;;;;;0.10;0.10;;;;;;;20.04;58.61;101757.09;10514589;28;20020;-62
2021/06/12 11:15:23;;;;;;;0.10;0.10;;;;;;;20.76;55.91;101755.78;10521368;28;20068;-62
2021/06/12 11:20:26;;;;;;;0.10;0.10;;;;;;;20.63;56.13;101764.72;10523422;28;20304;-63
2021/06/12 11:25:27;;;;;;;0.00;0.00;;;;;;;20.82;54.64;101770.38;10532224;28;20024;-62
2021/06/12 11:30:28;;;;;;;0.10;0.10;;;;;;;20.95;53.65;101740.66;10525350;28;20020;-62
2021/06/12 11:35:40;;;;;;;0.10;0.10;;;;;;;20.11;53.30;101776.94;10514217;28;20027;-63
2021/06/12 11:41:00;;;;;;;0.10;0.10;;;;;;;20.39;57.11;101795.81;10532630;28;20047;-62
2021/06/12 11:46:06;;;;;;;0.10;0.10;;;;;;;20.88;55.33;101785.81;10533693;28;20032;-62
2021/06/12 11:51:16;;;;;;;0.10;0.10;;;;;;;20.64;55.96;101795.31;10520101;28;20035;-62
2021/06/12 11:56:49;;;;;;;0.10;0.10;;;;;;;20.25;53.71;101797.63;10533124;28;20016;-67
2021/06/12 12:01:57;;;;;;;0.10;0.10;;;;;;;19.80;56.78;101805.19;10531689;28;20036;-61
2021/06/12 12:06:58;;;;;;;0.10;0.10;;;;;;;20.20;52.57;101789.25;10526186;28;20025;-61
2021/06/12 12:12:01;;;;;;;0.10;0.10;;;;;;;20.21;53.31;101803.59;10490778;28;20024;-61
2021/06/12 12:17:02;;;;;;;;;;;;;;;20.33;51.85;101810.13;10501925;28;20028;-62
2021/06/12 12:22:02;;;;;;;0.10;0.10;;;;;;;20.35;52.90;101803.47;10527541;28;19908;-61
2021/06/12 12:27:08;;;;;;;0.00;0.00;;;;;;;20.24;51.44;101808.63;10532838;28;20035;-60
2021/06/12 12:32:09;;;;;;;0.10;0.10;;;;;;;20.19;51.46;101811.94;10498456;28;20020;-61
2021/06/12 12:37:20;;;;;;;0.10;0.10;;;;;;;20.43;53.79;101815.19;10519461;28;20027;-62
2021/06/12 12:42:25;;;;;;;0.10;0.10;;;;;;;20.44;52.75;101814.97;10539226;28;20016;-62
2021/06/12 12:47:27;;;;;;;0.10;0.10;;;;;;;20.84;54.63;101831.44;10540871;28;20111;-62
2021/06/12 12:52:28;;;;;;;0.10;0.10;;;;;;;21.10;52.19;101819.84;10528979;28;20026;-62
2021/06/12 12:57:43;;;;;;;0.10;0.10;;;;;;;20.21;54.30;101823.38;10533094;28;20066;-61
2021/06/12 13:02:43;;;;;;;0.10;0.10;;;;;;;20.25;57.40;101830.06;10530522;28;20038;-62
2021/06/12 13:07:43;;;;;;;0.10;0.10;;;;;;;20.07;54.19;101835.13;10539086;28;20031;-60
2021/06/12 13:12:58;;;;;;;0.10;0.10;;;;;;;19.37;57.44;101845.78;10537522;28;20020;-61
2021/06/12 13:18:09;;;;;;;0.10;0.10;;;;;;;19.03;56.78;101840.22;10538734;28;20016;-61
2021/06/12 13:23:27;;;;;;;0.10;0.10;;;;;;;18.65;58.32;101853.84;10535793;28;20012;-61
2021/06/12 13:28:27;;;;;;;0.10;0.10;;;;;;;18.45;55.69;101859.78;10538149;28;20028;-61
2021/06/12 13:33:31;;;;;;;0.10;0.10;;;;;;;18.94;56.15;101869.19;10531186;28;20471;-61
2021/06/12 13:38:35;;;;;;;0.03;0.03;;;;;;;18.90;54.79;101881.38;10538250;28;20024;-61
2021/06/12 13:43:46;;;;;;;0.10;0.10;;;;;;;18.94;54.17;101859.22;10537867;28;20054;-61
2021/06/12 13:48:48;;;;;;;0.10;0.10;;;;;;;19.05;51.54;101881.34;10538073;28;20032;-60
2021/06/12 13:53:55;;;;;;;0.10;0.10;;;;;;;19.19;53.86;101883.16;10536501;28;20038;-60
2021/06/12 13:58:57;;;;;;;0.10;0.10;;;;;;;19.14;54.70;101897.25;10497074;28;20545;-60
2021/06/12 14:03:57;;;;;;;0.10;0.10;;;;;;;19.09;51.83;101905.06;10548489;22;20131;-65
2021/06/12 14:08:58;;;;;;;0.10;0.10;;;;;;;18.63;53.03;101907.97;10575066;28;20103;-66
2021/06/12 14:13:59;;;;;;;0.10;0.10;;;;;;;18.63;55.52;101909.84;10533941;28;20039;-65
2021/06/12 14:18:59;;;;;;;0.10;0.10;;;;;;;18.75;55.64;101901.09;10532874;28;20028;-65
2021/06/12 14:23:59;;;;;;;0.10;0.10;;;;;;;18.55;54.57;101925.06;10534076;28;20028;-68
2021/06/12 14:29:00;;;;;;;0.10;0.10;;;;;;;18.10;54.63;101917.97;10532605;28;20016;-66
2021/06/12 14:34:00;;;;;;;0.10;0.10;;;;;;;18.29;56.75;101919.28;10559200;28;20035;-66
2021/06/12 14:39:00;;;;;;;0.10;0.10;;;;;;;18.39;57.36;101921.75;10530279;28;20059;-67
2021/06/12 14:44:01;;;;;;;0.10;0.10;;;;;;;18.58;55.67;101923.88;10530555;28;20032;-65
2021/06/12 14:49:02;;;;;;;0.10;0.10;;;;;;;18.32;55.50;101940.50;10532658;28;20097;-65
2021/06/12 14:54:03;;;;;;;0.00;0.00;;;;;;;18.18;55.13;101931.38;10534288;28;20024;-66
2021/06/12 14:59:04;;;;;;;0.10;0.10;;;;;;;17.77;57.15;101936.19;10533821;28;20421;-65
2021/06/12 15:04:04;;;;;;;0.10;0.10;;;;;;;17.46;57.87;101938.97;10537779;28;20034;-65
2021/06/12 15:09:05;;;;;;;0.10;0.10;;;;;;;17.21;58.98;101936.38;10535079;28;20038;-65
2021/06/12 15:14:07;;;;;;;0.10;0.10;;;;;;;17.30;60.39;101950.63;10533319;28;20267;-70
2021/06/12 15:19:09;;;;;;;0.10;0.10;;;;;;;17.44;60.63;101944.50;10530700;28;20439;-64
2021/06/12 15:24:09;;;;;;;0.10;0.10;;;;;;;17.23;61.00;101937.06;10531427;28;20020;-63
2021/06/12 15:29:09;;;;;;;0.10;0.10;;;;;;;17.44;61.51;101928.34;10543295;28;20020;-63
2021/06/12 15:34:10;;;;;;;0.10;0.10;;;;;;;17.89;60.17;101929.44;10529116;28;20035;-63
2021/06/12 15:39:10;;;;;;;0.10;0.10;;;;;;;17.39;60.33;101928.91;10543920;28;20544;-62
2021/06/12 15:44:11;;;;;;;0.10;0.10;;;;;;;17.34;62.22;101952.81;10530757;28;20031;-63
2021/06/12 15:49:11;;;;;;;0.10;0.10;;;;;;;17.38;62.30;101951.44;10546853;28;20672;-63
2021/06/12 15:54:12;;;;;;;0.10;0.10;;;;;;;17.59;62.91;101950.81;10552310;28;20015;-63
2021/06/12 15:59:12;;;;;;;0.10;0.10;;;;;;;17.79;62.22;101953.91;10573996;28;20646;-63
2021/06/12 16:04:12;;;;;;;0.15;0.15;;;;;;;17.87;60.99;101947.63;10546276;28;20028;-63
2021/06/12 16:09:13;;;;;;;0.10;0.10;;;;;;;17.90;62.39;101966.13;10531809;28;20050;-62
2021/06/12 16:14:13;;;;;;;0.10;0.10;;;;;;;17.64;61.80;101967.28;10535121;28;20024;-64
2021/06/12 16:19:14;;;;;;;0.10;0.10;;;;;;;17.69;61.54;101974.00;10573689;28;20277;-62
2021/06/12 16:24:15;;;;;;;0.10;0.10;;;;;;;17.78;60.78;101981.06;10572861;28;20708;-63
2021/06/12 16:29:15;;;;;;;0.10;0.10;;;;;;;17.74;60.58;101982.38;10551296;28;20115;-63
2021/06/12 16:34:16;;;;;;;0.10;0.10;;;;;;;18.00;61.74;101995.53;10529657;28;20106;-62
2021/06/12 16:39:16;;;;;;;0.10;0.10;;;;;;;17.94;61.58;101988.16;10531501;28;20031;-63
2021/06/12 16:44:17;;;;;;;0.10;0.10;;;;;;;17.54;61.52;101988.25;10533788;28;20067;-63
2021/06/12 16:49:17;;;;;;;0.10;0.10;;;;;;;17.36;61.25;101993.03;10531286;28;20020;-63
2021/06/12 16:59:29;;;;;;;0.10;0.10;;;;;;;16.92;65.38;102017.75;10563006;28;20020;-61
2021/06/12 17:04:30;;;;;;;0.10;0.10;;;;;;;16.96;65.61;102030.69;10528301;28;20039;-63
2021/06/12 17:09:32;;;;;;;0.10;0.10;;;;;;;16.94;65.95;102037.25;10535325;28;20043;-63
2021/06/12 17:14:32;;;;;;;0.10;0.10;;;;;;;16.80;66.04;102044.19;10542739;28;20118;-62
2021/06/12 17:19:33;;;;;;;0.10;0.10;;;;;;;16.70;67.80;102038.94;10577672;28;20027;-62
2021/06/12 17:24:33;;;;;;;0.10;0.10;;;;;;;16.62;67.40;102054.25;10579324;28;20027;-62
2021/06/12 17:29:33;;;;;;;0.10;0.10;;;;;;;16.73;66.70;102048.53;10580093;28;20027;-63
2021/06/12 17:34:34;;;;;;;0.00;0.00;;;;;;;16.72;67.81;102054.91;10556631;28;20275;-63
2021/06/12 17:39:34;;;;;;;0.10;0.10;;;;;;;16.71;68.66;102062.16;10521188;28;20023;-61
2021/06/12 17:44:35;;;;;;;0.10;0.10;;;;;;;16.66;64.88;102061.81;10542094;28;20363;-62
2021/06/12 17:49:35;;;;;;;0.10;0.10;;;;;;;16.64;63.92;102065.66;10536727;28;20725;-60
2021/06/12 17:54:35;;;;;;;0.10;0.10;;;;;;;16.51;64.51;102082.31;10533884;28;20520;-61
2021/06/12 17:59:36;;;;;;;0.10;0.10;;;;;;;16.51;64.45;102087.72;10536122;28;20026;-62
2021/06/12 18:04:36;;;;;;;0.10;0.10;;;;;;;16.48;64.54;102082.66;10536072;28;20097;-62
2021/06/12 18:09:42;;;;;;;0.10;0.10;;;;;;;16.46;64.22;102098.13;10536177;28;20705;-62
2021/06/12 18:14:42;;;;;;;0.10;0.10;;;;;;;16.31;63.38;102111.38;10570326;28;20047;-62
2021/06/12 18:19:43;;;;;;;0.10;0.10;;;;;;;15.97;63.55;102117.69;10564854;28;20047;-62
2021/06/12 18:24:44;;;;;;;0.10;0.10;;;;;;;15.68;64.09;102130.66;10554104;28;20028;-62
2021/06/12 18:29:44;;;;;;;0.10;0.10;;;;;;;15.48;63.99;102141.63;10534626;28;20379;-62
2021/06/12 18:34:45;;;;;;;0.10;0.10;;;;;;;15.34;65.37;102140.38;10533730;28;20024;-62
2021/06/12 18:39:45;;;;;;;0.10;0.10;;;;;;;15.26;65.82;102143.00;10533000;28;20063;-62
2021/06/12 18:44:46;;;;;;;0.10;0.10;;;;;;;15.16;67.35;102144.94;10535928;28;20024;-62
2021/06/12 18:49:47;;;;;;;0.10;0.10;;;;;;;15.04;67.82;102152.41;10538859;28;20016;-62
2021/06/12 18:54:47;;;;;;;0.10;0.10;;;;;;;14.92;67.63;102159.88;10532872;28;20418;-63
2021/06/12 18:59:48;;;;;;;0.10;0.10;;;;;;;14.84;66.27;102165.16;10557001;28;20019;-62
2021/06/12 19:04:48;;;;;;;0.10;0.10;;;;;;;14.71;65.71;102164.69;10543714;28;20375;-62
2021/06/12 19:09:49;;;;;;;0.10;0.10;;;;;;;14.59;64.25;102173.97;10571910;28;20096;-63
2021/06/12 19:14:49;;;;;;;0.10;0.10;;;;;;;14.46;65.68;102188.56;10547840;28;20099;-63
2021/06/12 19:19:50;;;;;;;0.10;0.10;;;;;;;14.30;65.79;102188.38;10551522;28;20062;-62
2021/06/12 19:24:50;;;;;;;0.20;0.20;;;;;;;14.18;65.18;102194.94;10546224;28;20119;-63
2021/06/12 19:29:51;;;;;;;0.15;0.15;;;;;;;14.03;65.64;102199.97;10560946;28;20078;-62
2021/06/12 19:34:54;;;;;;;0.10;0.10;;;;;;;13.90;66.18;102197.59;10557894;28;20652;-62
2021/06/12 19:39:54;;;;;;;0.10;0.10;;;;;;;13.76;66.20;102209.66;10559992;28;20037;-63
2021/06/12 19:44:55;;;;;;;0.10;0.10;;;;;;;13.64;65.96;102213.47;10563226;28;20480;-61
2021/06/12 19:49:55;;;;;;;0.10;0.10;;;;;;;13.58;65.37;102222.97;10544719;28;20545;-62
2021/06/12 19:54:56;;;;;;;0.10;0.10;;;;;;;13.55;66.40;102228.59;10522645;28;20040;-60
2021/06/12 19:59:59;;;;;;;0.10;0.10;;;;;;;13.47;66.33;102233.84;10533669;28;20379;-62
2021/06/12 20:05:00;;;;;;;0.15;0.15;;;;;;;13.34;67.21;102242.16;10545055;22;20067;-64
2021/06/12 20:10:01;;;;;;;0.10;0.10;;;;;;;13.27;68.11;102242.88;10516410;28;20038;-63
2021/06/12 20:15:02;;;;;;;0.10;0.10;;;;;;;13.24;67.74;102256.50;10562616;28;20363;-63
2021/06/12 20:20:10;;;;;;;0.20;0.20;;;;;;;13.28;68.79;102272.16;10575156;28;20030;-64
2021/06/12 20:25:11;;;;;;;0.10;0.10;;;;;;;13.32;68.78;102265.56;10575323;28;20054;-63
2021/06/12 20:30:11;;;;;;;0.10;0.10;;;;;;;13.38;68.23;102272.16;10574631;28;20062;-64
2021/06/12 20:35:13;;;;;;;0.10;0.10;;;;;;;13.43;68.77;102285.09;10565930;28;20476;-63
2021/06/12 20:40:14;;;;;;;0.10;0.10;;;;;;;13.44;69.67;102287.66;10574210;28;20050;-63
2021/06/12 20:45:20;;;;;;;0.20;0.20;;;;;;;13.38;70.58;102288.22;10582661;28;20023;-64
2021/06/12 20:50:21;;;;;;;0.10;0.10;;;;;;;13.28;70.62;102298.91;10581278;28;20053;-63
2021/06/12 20:55:24;;;;;;;0.10;0.10;;;;;;;13.16;69.00;102296.50;10584614;28;20055;-62
2021/06/12 21:00:24;;;;;;;0.10;0.10;;;;;;;13.05;69.07;102309.00;10581664;28;20379;-62
2021/06/12 21:05:26;;;;;;;0.10;0.10;;;;;;;12.99;69.34;102312.25;10560854;28;20032;-64
2021/06/12 21:10:27;;;;;;;0.10;0.10;;;;;;;13.01;69.83;102318.31;10578208;28;20020;-62
2021/06/12 21:15:27;;;;;;;0.10;0.10;;;;;;;12.97;70.09;102316.88;10580738;28;20019;-63
2021/06/12 21:20:28;;;;;;;0.10;0.10;;;;;;;12.83;71.66;102325.31;10580199;28;20019;-63
2021/06/12 21:25:28;;;;;;;0.13;0.13;;;;;;;12.64;71.92;102324.28;10577536;28;20270;-63
2021/06/12 21:30:29;;;;;;;0.10;0.10;;;;;;;12.48;73.20;102321.28;10565448;28;20619;-63
2021/06/12 21:35:29;;;;;;;0.10;0.10;;;;;;;12.39;73.49;102322.94;10580088;28;20043;-64
2021/06/12 21:40:30;;;;;;;0.10;0.10;;;;;;;12.39;73.95;102322.06;10578223;28;20028;-64
2021/06/12 21:45:30;;;;;;;0.15;0.15;;;;;;;12.34;74.40;102319.81;10580069;28;20269;-64
2021/06/12 21:50:31;;;;;;;0.10;0.10;;;;;;;12.29;75.16;102324.69;10578477;28;20095;-64
2021/06/12 21:55:31;;;;;;;0.10;0.10;;;;;;;12.19;75.62;102340.69;10578796;28;20060;-64
2021/06/12 22:00:45;;;;;;;0.10;0.10;;;;;;;12.12;75.82;102347.53;10578526;28;20070;-64
2021/06/12 22:05:45;;;;;;;0.10;0.10;;;;;;;12.03;76.05;102351.00;10576535;28;20031;-63
2021/06/12 22:10:46;;;;;;;0.10;0.10;;;;;;;11.96;76.09;102349.84;10577163;28;20382;-63
2021/06/12 22:15:46;;;;;;;0.10;0.10;;;;;;;11.89;76.36;102346.81;10578080;28;20545;-63
2021/06/12 22:25:50;;;;;;;0.10;0.10;;;;;;;12.17;75.22;102345.31;10578303;28;20343;-63
2021/06/12 22:30:51;;;;;;;0.10;0.10;;;;;;;12.28;75.15;102355.09;10576383;28;20019;-63
2021/06/12 22:35:52;;;;;;;0.10;0.10;;;;;;;12.32;74.32;102355.66;10577085;28;20053;-63
2021/06/12 22:40:53;;;;;;;0.20;0.20;;;;;;;12.21;74.70;102360.09;10577254;28;20466;-62
2021/06/12 22:45:53;;;;;;;0.10;0.10;;;;;;;12.18;75.28;102363.03;10577255;28;20050;-63
2021/06/12 22:50:54;;;;;;;0.08;0.08;;;;;;;12.16;76.29;102366.84;10576671;28;20466;-63
2021/06/12 22:55:54;;;;;;;0.10;0.10;;;;;;;12.17;76.88;102371.19;10577154;28;20024;-63
2021/06/12 23:00:54;;;;;;;0.17;0.17;;;;;;;12.19;76.76;102369.25;10576043;28;20311;-63
2021/06/12 23:05:55;;;;;;;0.10;0.10;;;;;;;12.23;76.69;102373.31;10574493;28;20372;-62
2021/06/12 23:10:55;;;;;;;0.10;0.10;;;;;;;12.26;76.62;102380.22;10575858;28;20019;-63
2021/06/12 23:15:55;;;;;;;0.10;0.10;;;;;;;12.26;76.40;102390.91;10575543;28;20424;-63
2021/06/12 23:20:57;;;;;;;0.10;0.10;;;;;;;12.19;76.56;102385.28;10575023;28;20016;-63